Terminal Aerodrome Forecast
Issued by NWS

Home | Current Version | Previous Version | Text Only | Print | Product List | Glossary On
Versions: 1 2 3 4 5 6 7 8 9 10 11 12 13 14 15
000
FTUS46 KSGX 261725
TAFSNA
TAF
KSNA 261725Z 2618/2718 20005KT P6SM SCT022
     FM261900 21009KT P6SM FEW025
     FM270100 VRB04KT P6SM SCT018
     FM270800 VRB04KT P6SM BKN015
     FM271600 VRB04KT P6SM BKN020
     FM271700 VRB04KT P6SM SCT025=

USA.gov is the U.S. government's official web portal to all federal, state and local government web resources and services.